createdAt,value
2023-03-31T00:00:46.812Z,9.23
2023-03-31T00:03:21.711Z,9.26
2023-03-31T00:05:48.667Z,9.26
2023-03-31T00:08:15.081Z,9.24
2023-03-31T00:10:46.555Z,9.24
2023-03-31T00:13:13.453Z,9.23
2023-03-31T00:15:39.886Z,9.26
2023-03-31T00:18:06.794Z,9.26
2023-03-31T00:20:33.543Z,9.26
2023-03-31T00:23:01.742Z,9.28
2023-03-31T00:25:28.340Z,9.30
2023-03-31T00:27:54.776Z,9.30
2023-03-31T00:30:21.395Z,9.31
2023-03-31T00:32:47.865Z,9.31
2023-03-31T00:35:14.344Z,9.33
2023-03-31T00:37:43.185Z,9.36
2023-03-31T00:40:10.264Z,9.37
2023-03-31T00:42:43.847Z,9.38
2023-03-31T00:45:16.654Z,9.40
2023-03-31T00:47:57.544Z,9.41
2023-03-31T00:50:32.105Z,9.43
2023-03-31T00:53:12.242Z,9.45
2023-03-31T00:55:44.758Z,9.46
2023-03-31T00:58:14.402Z,9.48
2023-03-31T01:00:42.612Z,9.49
2023-03-31T01:03:10.332Z,9.51
2023-03-31T01:05:44.529Z,9.54
2023-03-31T01:08:12.210Z,9.56
2023-03-31T01:10:43.501Z,9.58
2023-03-31T01:13:12.294Z,9.61
2023-03-31T01:15:39.225Z,9.64
2023-03-31T01:18:06.955Z,9.66
2023-03-31T01:20:59.806Z,9.64
2023-03-31T01:24:03.880Z,9.62
2023-03-31T01:27:04.213Z,9.59
2023-03-31T01:30:09.052Z,9.60
2023-03-31T01:32:35.655Z,9.58
2023-03-31T01:35:21.095Z,9.58
2023-03-31T01:38:25.637Z,9.58
2023-03-31T01:41:29.284Z,9.57
2023-03-31T01:44:16.426Z,9.54
2023-03-31T01:46:59.135Z,9.52
2023-03-31T01:49:43.865Z,9.51
2023-03-31T01:52:38.288Z,9.50
2023-03-31T01:55:39.532Z,9.47
2023-03-31T01:58:10.920Z,9.49
2023-03-31T02:00:44.961Z,9.50
2023-03-31T02:03:17.197Z,9.50
2023-03-31T02:05:49.745Z,9.49
2023-03-31T02:08:23.125Z,9.51
2023-03-31T02:10:52.549Z,9.53
2023-03-31T02:13:21.057Z,9.56
2023-03-31T02:15:53.231Z,9.58
2023-03-31T02:18:26.392Z,9.59
2023-03-31T02:20:57.358Z,9.61
2023-03-31T02:23:31.580Z,9.64
2023-03-31T02:26:07.168Z,9.66
2023-03-31T02:28:34.883Z,9.67
2023-03-31T02:31:10.310Z,9.68
2023-03-31T02:33:36.960Z,9.72
2023-03-31T02:36:06.273Z,9.74
2023-03-31T02:38:42.112Z,9.74
2023-03-31T02:41:09.376Z,9.75
2023-03-31T02:43:35.817Z,9.75
2023-03-31T02:46:02.356Z,9.76
2023-03-31T02:48:32.666Z,9.75
2023-03-31T02:51:33.409Z,9.74
2023-03-31T02:54:23.922Z,9.72
2023-03-31T02:57:24.378Z,9.72
2023-03-31T03:00:16.684Z,9.68
2023-03-31T03:02:58.331Z,9.65
2023-03-31T03:05:27.709Z,9.62
2023-03-31T03:08:01.016Z,9.61
2023-03-31T03:11:11.615Z,9.59
2023-03-31T03:14:05.516Z,9.58
2023-03-31T03:16:44.360Z,9.56
2023-03-31T03:19:19.544Z,9.55
2023-03-31T03:21:47.491Z,9.54
2023-03-31T03:24:16.980Z,9.53
2023-03-31T03:26:44.830Z,9.52
2023-03-31T03:29:15.781Z,9.51
2023-03-31T03:31:42.628Z,9.48
2023-03-31T03:34:12.706Z,9.48
2023-03-31T03:36:39.942Z,9.45
2023-03-31T03:39:08.101Z,9.46
2023-03-31T03:41:34.599Z,9.45
2023-03-31T03:44:01.213Z,9.43
2023-03-31T03:46:27.751Z,9.42
2023-03-31T03:48:54.340Z,9.40
2023-03-31T03:51:20.944Z,9.40
2023-03-31T03:53:47.418Z,9.39
2023-03-31T03:56:13.905Z,9.37
2023-03-31T03:58:40.331Z,9.37
2023-03-31T04:01:07.150Z,9.35
2023-03-31T04:03:33.593Z,9.34
2023-03-31T04:06:00.143Z,9.33
2023-03-31T04:08:27.264Z,9.30
2023-03-31T04:10:53.746Z,9.28
2023-03-31T04:13:20.420Z,9.27
2023-03-31T04:15:47.240Z,9.26
2023-03-31T04:18:23.231Z,9.24
2023-03-31T04:20:54.811Z,9.23
2023-03-31T04:23:23.485Z,9.24
2023-03-31T04:25:51.399Z,9.23
2023-03-31T04:28:17.772Z,9.20
2023-03-31T04:30:44.403Z,9.19
2023-03-31T04:33:10.890Z,9.19
2023-03-31T04:35:49.695Z,9.16
2023-03-31T04:38:21.951Z,9.16
2023-03-31T04:40:50.600Z,9.15
2023-03-31T04:43:18.918Z,9.14
2023-03-31T04:45:45.592Z,9.13
2023-03-31T04:48:12.343Z,9.15
2023-03-31T04:50:40.251Z,9.16
2023-03-31T04:53:07.291Z,9.18
2023-03-31T04:55:34.663Z,9.20
2023-03-31T04:58:01.352Z,9.24
2023-03-31T05:00:28.944Z,9.27
2023-03-31T05:02:55.721Z,9.28
2023-03-31T05:05:22.219Z,9.29
2023-03-31T05:07:48.627Z,9.31
2023-03-31T05:10:15.361Z,9.31
2023-03-31T05:12:41.845Z,9.30
2023-03-31T05:15:08.690Z,9.30
2023-03-31T05:17:36.797Z,9.30
2023-03-31T05:20:08.196Z,9.31
2023-03-31T05:22:36.760Z,9.32
2023-03-31T05:25:05.151Z,9.32
2023-03-31T05:27:32.380Z,9.31
2023-03-31T05:29:58.816Z,9.31
2023-03-31T05:32:26.652Z,9.32
2023-03-31T05:34:56.994Z,9.35
2023-03-31T05:37:27.075Z,9.36
2023-03-31T05:39:53.819Z,9.36
2023-03-31T05:42:21.272Z,9.37
2023-03-31T05:44:47.830Z,9.37
2023-03-31T05:47:14.713Z,9.37
2023-03-31T05:49:41.369Z,9.38
2023-03-31T05:52:09.175Z,9.38
2023-03-31T05:54:35.641Z,9.39
2023-03-31T05:57:02.374Z,9.39
2023-03-31T05:59:29.067Z,9.41
2023-03-31T06:01:55.832Z,9.42
2023-03-31T06:04:22.373Z,9.44
2023-03-31T06:06:50.356Z,9.44
2023-03-31T06:09:17.903Z,9.44
2023-03-31T06:11:47.593Z,9.43
2023-03-31T06:14:15.240Z,9.45
2023-03-31T06:16:41.673Z,9.48
2023-03-31T06:19:08.275Z,9.50
2023-03-31T06:21:34.746Z,9.51
2023-03-31T06:24:01.700Z,9.54
2023-03-31T06:26:28.390Z,9.57
2023-03-31T06:28:54.913Z,9.60
2023-03-31T06:31:23.802Z,9.61
2023-03-31T06:33:51.117Z,9.65
2023-03-31T06:36:20.383Z,9.67
2023-03-31T06:38:47.044Z,9.75
2023-03-31T06:41:14.866Z,9.84
2023-03-31T06:43:41.517Z,9.84
2023-03-31T06:46:08.663Z,9.81
2023-03-31T06:48:35.598Z,9.80
2023-03-31T06:51:06.622Z,9.82
2023-03-31T06:53:33.932Z,9.79
2023-03-31T06:56:00.623Z,9.80
2023-03-31T06:58:29.733Z,9.82
2023-03-31T07:00:57.872Z,9.79
2023-03-31T07:03:25.304Z,9.76
2023-03-31T07:05:54.137Z,9.76
2023-03-31T07:08:21.694Z,9.76
2023-03-31T07:10:50.217Z,9.80
2023-03-31T07:13:17.533Z,9.82
2023-03-31T07:15:46.906Z,9.83
2023-03-31T07:18:15.602Z,9.82
2023-03-31T07:20:43.140Z,9.83
2023-03-31T07:23:09.799Z,9.79
2023-03-31T07:25:36.677Z,9.77
2023-03-31T07:28:05.020Z,9.81
2023-03-31T07:30:32.038Z,9.81
2023-03-31T07:32:59.192Z,9.81
2023-03-31T07:35:25.889Z,9.84
2023-03-31T07:37:52.428Z,9.85
2023-03-31T07:40:23.259Z,9.86
2023-03-31T07:42:51.678Z,9.87
2023-03-31T07:45:22.961Z,9.91
2023-03-31T07:47:49.787Z,9.93
2023-03-31T07:50:16.952Z,9.95
2023-03-31T07:52:46.707Z,9.97
2023-03-31T07:55:14.099Z,10.01
2023-03-31T07:57:41.529Z,10.04
2023-03-31T08:00:12.407Z,10.00
2023-03-31T08:02:42.725Z,9.95
2023-03-31T08:05:11.292Z,9.89
2023-03-31T08:07:40.360Z,9.84
2023-03-31T08:10:09.585Z,9.88
2023-03-31T08:12:36.783Z,9.93
2023-03-31T08:15:04.001Z,9.98
2023-03-31T08:17:30.631Z,10.09
2023-03-31T08:19:58.416Z,10.24
2023-03-31T08:22:26.367Z,10.41
2023-03-31T08:24:53.015Z,10.54
2023-03-31T08:27:19.531Z,10.67
2023-03-31T08:29:46.109Z,10.75
2023-03-31T08:32:12.729Z,10.65
2023-03-31T08:34:42.536Z,10.49
2023-03-31T08:37:10.394Z,10.39
2023-03-31T08:39:37.305Z,10.40
2023-03-31T08:42:20.392Z,10.41
2023-03-31T08:45:03.586Z,10.45
2023-03-31T08:47:34.153Z,10.57
2023-03-31T08:50:07.305Z,10.66
2023-03-31T08:52:52.044Z,10.75
2023-03-31T08:55:25.809Z,10.79
2023-03-31T08:58:26.440Z,10.84
2023-03-31T09:01:11.218Z,10.89
2023-03-31T09:03:52.093Z,10.88
2023-03-31T09:06:29.929Z,10.93
2023-03-31T09:09:01.781Z,10.90
2023-03-31T09:11:40.611Z,10.86
2023-03-31T09:14:36.888Z,10.85
2023-03-31T09:17:27.626Z,10.90
2023-03-31T09:19:56.225Z,10.97
2023-03-31T09:22:27.841Z,11.06
2023-03-31T09:25:26.004Z,11.21
2023-03-31T09:27:58.139Z,11.32
2023-03-31T09:30:30.817Z,11.36
2023-03-31T09:33:32.146Z,11.46
2023-03-31T09:35:59.932Z,11.64
2023-03-31T09:38:31.161Z,11.80
2023-03-31T09:40:59.150Z,11.72
2023-03-31T09:43:31.633Z,11.70
2023-03-31T09:46:09.231Z,11.56
2023-03-31T09:48:38.982Z,11.47
2023-03-31T09:51:07.914Z,11.53
2023-03-31T09:53:41.352Z,11.62
2023-03-31T09:56:11.415Z,11.60
2023-03-31T09:58:43.082Z,11.61
2023-03-31T10:01:12.087Z,11.75
2023-03-31T10:03:56.022Z,11.78
2023-03-31T10:06:24.437Z,11.88
2023-03-31T10:08:58.160Z,11.94
2023-03-31T10:11:27.245Z,11.98
2023-03-31T10:14:03.768Z,12.10
2023-03-31T10:16:42.776Z,12.27
2023-03-31T10:19:31.595Z,12.35
2023-03-31T10:22:09.298Z,12.37
2023-03-31T10:24:41.556Z,12.47
2023-03-31T10:27:19.871Z,12.74
2023-03-31T10:29:47.217Z,12.77
2023-03-31T10:32:30.634Z,12.65
2023-03-31T10:34:58.930Z,12.57
2023-03-31T10:37:28.576Z,12.51
2023-03-31T10:40:00.855Z,12.63
2023-03-31T10:42:28.861Z,12.91
2023-03-31T10:45:33.658Z,12.99
2023-03-31T10:48:16.820Z,12.80
2023-03-31T10:50:43.818Z,12.64
2023-03-31T10:53:15.860Z,12.50
2023-03-31T10:56:12.409Z,12.58
2023-03-31T10:58:38.796Z,12.51
2023-03-31T11:01:24.051Z,12.32
2023-03-31T11:04:02.884Z,12.24
2023-03-31T11:06:52.637Z,12.33
2023-03-31T11:09:36.820Z,12.34
2023-03-31T11:12:24.711Z,12.15
2023-03-31T11:15:07.293Z,12.06
2023-03-31T11:18:01.925Z,12.11
2023-03-31T11:20:33.064Z,12.14
2023-03-31T11:23:22.325Z,12.34
2023-03-31T11:26:02.685Z,12.36
2023-03-31T11:28:35.446Z,12.29
2023-03-31T11:31:23.815Z,12.17
2023-03-31T11:34:09.021Z,12.17
2023-03-31T11:36:57.404Z,12.33
2023-03-31T11:39:29.920Z,12.45
2023-03-31T11:42:05.690Z,12.52
2023-03-31T11:44:41.593Z,12.52
2023-03-31T11:47:18.644Z,12.49
2023-03-31T11:49:54.926Z,12.30
2023-03-31T11:52:40.747Z,12.05
2023-03-31T11:55:16.395Z,11.74
2023-03-31T11:58:11.475Z,11.56
2023-03-31T12:01:09.994Z,11.53
2023-03-31T12:04:03.524Z,11.41
2023-03-31T12:06:40.628Z,11.38
2023-03-31T12:09:36.016Z,11.39
2023-03-31T12:12:11.139Z,11.33
2023-03-31T12:14:50.193Z,11.21
2023-03-31T12:17:22.995Z,11.28
2023-03-31T12:19:57.268Z,11.38
2023-03-31T12:22:37.871Z,11.33
2023-03-31T12:25:05.713Z,11.18
2023-03-31T12:27:47.340Z,11.14
2023-03-31T12:30:42.356Z,11.21
2023-03-31T12:33:45.117Z,11.26
2023-03-31T12:36:35.954Z,11.33
2023-03-31T12:39:23.221Z,11.37
2023-03-31T12:42:06.090Z,11.28
2023-03-31T12:44:38.911Z,11.15
2023-03-31T12:47:15.149Z,11.10
2023-03-31T12:49:52.813Z,11.09
2023-03-31T12:52:44.012Z,11.05
2023-03-31T12:55:37.276Z,11.17
2023-03-31T12:58:40.620Z,11.37
2023-03-31T13:01:21.487Z,11.53
2023-03-31T13:03:58.500Z,11.61
2023-03-31T13:06:27.963Z,11.55
2023-03-31T13:09:42.751Z,11.66
2023-03-31T13:12:15.486Z,11.71
2023-03-31T13:14:44.871Z,11.78
2023-03-31T13:17:32.572Z,11.81
2023-03-31T13:20:29.135Z,11.86
2023-03-31T13:23:05.955Z,11.72
2023-03-31T13:25:45.448Z,11.68
2023-03-31T13:28:16.304Z,11.56
2023-03-31T13:30:42.689Z,11.47
2023-03-31T13:33:12.987Z,11.42
2023-03-31T13:35:42.622Z,11.33
2023-03-31T13:38:09.114Z,11.41
2023-03-31T13:40:50.876Z,11.50
2023-03-31T13:43:48.615Z,11.59
2023-03-31T13:46:31.181Z,11.61
2023-03-31T13:49:05.952Z,11.55
2023-03-31T13:51:46.377Z,11.61
2023-03-31T13:54:16.883Z,11.58
2023-03-31T13:57:21.110Z,11.42
2023-03-31T14:00:24.537Z,11.38
2023-03-31T14:03:03.150Z,11.28
2023-03-31T14:05:39.740Z,11.27
2023-03-31T14:08:29.902Z,11.41
2023-03-31T14:11:16.974Z,11.31
2023-03-31T14:13:43.468Z,11.19
2023-03-31T14:16:10.946Z,11.16
2023-03-31T14:18:47.474Z,11.15
2023-03-31T14:21:24.632Z,11.18
2023-03-31T14:24:05.509Z,11.36
2023-03-31T14:27:05.695Z,11.53
2023-03-31T14:29:43.891Z,11.59
2023-03-31T14:32:38.587Z,11.63
2023-03-31T14:35:26.570Z,11.60
2023-03-31T14:37:55.235Z,11.52
2023-03-31T14:40:22.718Z,11.49
2023-03-31T14:42:52.197Z,11.44
2023-03-31T14:45:25.261Z,11.46
2023-03-31T14:47:59.059Z,11.33
2023-03-31T14:50:42.206Z,11.14
2023-03-31T14:53:16.208Z,11.05
2023-03-31T14:55:58.177Z,11.03
2023-03-31T15:07:13.316Z,11.64
2023-03-31T15:09:41.377Z,11.59
2023-03-31T15:12:13.633Z,11.57
2023-03-31T15:14:47.055Z,11.47
2023-03-31T15:17:38.139Z,11.38
2023-03-31T15:20:28.216Z,11.31
2023-03-31T15:22:59.886Z,11.24
2023-03-31T15:25:32.924Z,11.09
2023-03-31T15:28:14.134Z,11.09
2023-03-31T15:30:47.688Z,11.14
2023-03-31T15:33:22.486Z,11.07
2023-03-31T15:35:49.363Z,10.92
2023-03-31T15:38:18.623Z,10.89
2023-03-31T15:40:51.119Z,10.84
2023-03-31T15:43:26.883Z,10.79
2023-03-31T15:45:55.633Z,10.86
2023-03-31T15:48:34.745Z,10.92
2023-03-31T15:51:05.639Z,10.89
2023-03-31T15:53:50.917Z,10.85
2023-03-31T15:56:33.507Z,10.80
2023-03-31T15:59:06.853Z,10.79
2023-03-31T16:01:38.827Z,10.83
2023-03-31T16:04:12.094Z,10.81
2023-03-31T16:06:52.553Z,10.79
2023-03-31T16:09:42.328Z,10.77
2023-03-31T16:12:25.736Z,10.75
2023-03-31T16:15:05.731Z,10.74
2023-03-31T16:17:37.569Z,10.67
2023-03-31T16:20:16.934Z,10.61
2023-03-31T16:22:47.245Z,10.58
2023-03-31T16:25:17.831Z,10.55
2023-03-31T16:27:48.649Z,10.51
2023-03-31T16:30:18.901Z,10.46
2023-03-31T16:33:03.242Z,10.40
2023-03-31T16:35:34.719Z,10.35
2023-03-31T16:38:04.300Z,10.31
2023-03-31T16:40:41.241Z,10.31
2023-03-31T16:43:15.395Z,10.30
2023-03-31T16:45:45.725Z,10.30
2023-03-31T16:48:16.285Z,10.32
2023-03-31T16:50:46.678Z,10.32
2023-03-31T16:53:15.205Z,10.34
2023-03-31T16:55:42.118Z,10.35
2023-03-31T16:58:08.875Z,10.36
2023-03-31T17:00:36.792Z,10.40
2023-03-31T17:03:04.804Z,10.43
2023-03-31T17:05:33.949Z,10.41
2023-03-31T17:08:00.779Z,10.32
2023-03-31T17:10:27.309Z,10.27
2023-03-31T17:12:53.853Z,10.21
2023-03-31T17:15:20.486Z,10.13
2023-03-31T17:17:47.765Z,10.10
2023-03-31T17:20:14.377Z,10.09
2023-03-31T17:22:41.576Z,10.08
2023-03-31T17:25:08.654Z,10.07
2023-03-31T17:27:35.222Z,10.07
2023-03-31T17:30:02.114Z,10.01
2023-03-31T17:32:28.965Z,10.00
2023-03-31T17:34:55.444Z,9.98
2023-03-31T17:37:22.545Z,9.99
2023-03-31T17:39:49.031Z,9.99
2023-03-31T17:42:16.705Z,10.01
2023-03-31T17:44:43.274Z,10.01
2023-03-31T17:47:09.678Z,10.03
2023-03-31T17:49:36.412Z,10.01
2023-03-31T17:52:03.605Z,9.98
2023-03-31T17:54:30.430Z,9.97
2023-03-31T17:56:57.069Z,9.92
2023-03-31T17:59:24.002Z,9.95
2023-03-31T18:01:50.801Z,9.95
2023-03-31T18:04:17.286Z,9.94
2023-03-31T18:06:44.773Z,9.93
2023-03-31T18:09:11.881Z,9.93
2023-03-31T18:11:40.547Z,9.88
2023-03-31T18:14:07.697Z,9.86
2023-03-31T18:16:35.752Z,9.84
2023-03-31T18:19:02.757Z,9.82
2023-03-31T18:21:29.176Z,9.80
2023-03-31T18:23:55.662Z,9.81
2023-03-31T18:26:24.279Z,9.79
2023-03-31T18:28:50.972Z,9.78
2023-03-31T18:31:17.844Z,9.77
2023-03-31T18:33:44.416Z,9.75
2023-03-31T18:36:16.866Z,9.74
2023-03-31T18:38:44.720Z,9.73
2023-03-31T18:41:11.458Z,9.75
2023-03-31T18:43:38.200Z,9.75
2023-03-31T18:46:04.802Z,9.75
2023-03-31T18:48:31.646Z,9.74
2023-03-31T18:50:58.346Z,9.73
2023-03-31T18:53:25.125Z,9.72
2023-03-31T18:55:57.576Z,9.74
2023-03-31T18:58:25.368Z,9.74
2023-03-31T19:00:52.570Z,9.73
2023-03-31T19:03:19.361Z,9.72
2023-03-31T19:05:46.333Z,9.73
2023-03-31T19:08:12.969Z,9.72
2023-03-31T19:10:39.675Z,9.72
2023-03-31T19:13:06.481Z,9.68
2023-03-31T19:15:33.789Z,9.67
2023-03-31T19:18:00.368Z,9.68
2023-03-31T19:20:26.894Z,9.64
2023-03-31T19:22:53.697Z,9.61
2023-03-31T19:25:20.937Z,9.59
2023-03-31T19:27:48.370Z,9.57
2023-03-31T19:30:21.134Z,9.59
2023-03-31T19:32:49.289Z,9.60
2023-03-31T19:35:20.356Z,9.57
2023-03-31T19:37:48.704Z,9.58
2023-03-31T19:40:15.503Z,9.60
2023-03-31T19:42:42.306Z,9.61
2023-03-31T19:45:09.248Z,9.62
2023-03-31T19:47:35.773Z,9.63
2023-03-31T19:50:02.518Z,9.61
2023-03-31T19:52:29.540Z,9.63
2023-03-31T19:54:56.146Z,9.62
2023-03-31T19:57:22.805Z,9.62
2023-03-31T19:59:49.393Z,9.63
2023-03-31T20:02:16.296Z,9.60
2023-03-31T20:04:43.066Z,9.58
2023-03-31T20:07:09.815Z,9.57
2023-03-31T20:09:37.329Z,9.56
2023-03-31T20:12:04.220Z,9.56
2023-03-31T20:14:30.941Z,9.56
2023-03-31T20:17:00.770Z,9.58
2023-03-31T20:19:27.776Z,9.56
2023-03-31T20:21:54.425Z,9.56
2023-03-31T20:24:21.489Z,9.55
2023-03-31T20:26:48.050Z,9.54
2023-03-31T20:29:14.561Z,9.51
2023-03-31T20:31:41.829Z,9.49
2023-03-31T20:34:13.961Z,9.49
2023-03-31T20:36:42.535Z,9.49
2023-03-31T20:39:09.845Z,9.49
2023-03-31T20:41:37.420Z,9.51
2023-03-31T20:44:05.928Z,9.49
2023-03-31T20:46:32.812Z,9.49
2023-03-31T20:48:59.589Z,9.50
2023-03-31T20:51:30.845Z,9.49
2023-03-31T20:53:58.722Z,9.47
2023-03-31T20:56:27.557Z,9.47
2023-03-31T20:58:57.340Z,9.44
2023-03-31T21:01:24.762Z,9.39
2023-03-31T21:03:52.901Z,9.38
2023-03-31T21:06:19.909Z,9.38
2023-03-31T21:08:51.811Z,9.37
2023-03-31T21:11:18.459Z,9.36
2023-03-31T21:13:45.462Z,9.37
2023-03-31T21:16:12.669Z,9.34
2023-03-31T21:18:39.354Z,9.32
2023-03-31T21:21:12.273Z,9.33
2023-03-31T21:23:40.434Z,9.33
2023-03-31T21:26:11.577Z,9.34
2023-03-31T21:28:39.045Z,9.33
2023-03-31T21:31:06.864Z,9.31
2023-03-31T21:39:25.025Z,9.26
2023-03-31T21:41:52.093Z,9.25
2023-03-31T21:44:18.569Z,9.25
2023-03-31T21:46:45.238Z,9.23
2023-03-31T21:49:11.824Z,9.23
2023-03-31T21:51:38.486Z,9.24
2023-03-31T21:54:05.218Z,9.22
2023-03-31T21:56:32.646Z,9.22
2023-03-31T21:59:00.203Z,9.21
2023-03-31T22:01:26.748Z,9.23
2023-03-31T22:03:53.408Z,9.22
2023-03-31T22:06:21.473Z,9.23
2023-03-31T22:33:40.967Z,9.11
2023-03-31T22:36:08.020Z,9.11
2023-03-31T22:38:34.616Z,9.12
2023-03-31T22:41:01.637Z,9.12
2023-03-31T22:43:28.223Z,9.11
2023-03-31T22:45:54.633Z,9.12
2023-03-31T22:48:21.083Z,9.11
2023-03-31T22:50:48.660Z,9.11
2023-03-31T22:53:15.018Z,9.12
2023-03-31T22:55:44.034Z,9.10
2023-03-31T22:58:20.634Z,9.10
2023-03-31T23:00:55.629Z,9.11
2023-03-31T23:03:22.087Z,9.12
2023-03-31T23:05:48.501Z,9.12
2023-03-31T23:08:14.865Z,9.13
2023-03-31T23:10:41.270Z,9.14
2023-03-31T23:13:07.673Z,9.14
2023-03-31T23:15:37.333Z,9.13
2023-03-31T23:18:03.949Z,9.10
2023-03-31T23:20:30.494Z,9.12
2023-03-31T23:22:58.306Z,9.11
2023-03-31T23:25:24.769Z,9.09
2023-03-31T23:27:51.223Z,9.08
2023-03-31T23:30:17.710Z,9.09
2023-03-31T23:32:44.142Z,9.10
2023-03-31T23:35:11.431Z,9.11
2023-03-31T23:37:37.839Z,9.12
2023-03-31T23:40:04.954Z,9.13
2023-03-31T23:42:31.366Z,9.14
2023-03-31T23:44:57.849Z,9.14
2023-03-31T23:47:24.652Z,9.16
2023-03-31T23:49:51.533Z,9.14
2023-03-31T23:52:17.950Z,9.15
2023-03-31T23:54:44.348Z,9.15
2023-03-31T23:57:11.088Z,9.16
2023-03-31T23:59:37.520Z,9.15
